sensor_id;sensor_type;location;lat;lon;timestamp;temperature;humidity
19359;DHT22;9815;52.334;20.890;2022-08-21T00:01:09;21.70;99.20
19359;DHT22;9815;52.334;20.890;2022-08-21T00:03:38;21.60;99.60
19359;DHT22;9815;52.334;20.890;2022-08-21T00:06:07;21.60;99.90
19359;DHT22;9815;52.334;20.890;2022-08-21T00:08:40;21.50;99.90
19359;DHT22;9815;52.334;20.890;2022-08-21T00:11:08;21.40;99.90
19359;DHT22;9815;52.334;20.890;2022-08-21T00:13:39;21.30;99.90
19359;DHT22;9815;52.334;20.890;2022-08-21T00:16:08;21.30;99.90
19359;DHT22;9815;52.334;20.890;2022-08-21T00:18:36;21.30;99.90
19359;DHT22;9815;52.334;20.890;2022-08-21T00:21:05;21.30;99.90
19359;DHT22;9815;52.334;20.890;2022-08-21T00:23:34;21.20;99.90
19359;DHT22;9815;52.334;20.890;2022-08-21T00:26:03;21.20;99.90
19359;DHT22;9815;52.334;20.890;2022-08-21T00:28:32;21.20;99.90
19359;DHT22;9815;52.334;20.890;2022-08-21T00:31:02;21.00;99.90
19359;DHT22;9815;52.334;20.890;2022-08-21T00:33:32;20.90;99.90
19359;DHT22;9815;52.334;20.890;2022-08-21T00:36:00;20.80;99.90
19359;DHT22;9815;52.334;20.890;2022-08-21T00:38:29;20.70;99.90
19359;DHT22;9815;52.334;20.890;2022-08-21T00:41:00;20.70;99.90
19359;DHT22;9815;52.334;20.890;2022-08-21T00:43:49;20.60;99.90
19359;DHT22;9815;52.334;20.890;2022-08-21T00:46:20;20.60;99.90
19359;DHT22;9815;52.334;20.890;2022-08-21T00:48:54;20.50;99.90
19359;DHT22;9815;52.334;20.890;2022-08-21T00:51:30;20.60;99.90
19359;DHT22;9815;52.334;20.890;2022-08-21T00:54:04;20.50;99.90
19359;DHT22;9815;52.334;20.890;2022-08-21T00:56:46;20.50;99.90
19359;DHT22;9815;52.334;20.890;2022-08-21T00:59:17;20.60;99.90
19359;DHT22;9815;52.334;20.890;2022-08-21T01:01:48;20.50;99.90
19359;DHT22;9815;52.334;20.890;2022-08-21T01:04:17;20.50;99.90
19359;DHT22;9815;52.334;20.890;2022-08-21T01:06:45;20.50;99.90
19359;DHT22;9815;52.334;20.890;2022-08-21T01:09:14;20.50;99.90
19359;DHT22;9815;52.334;20.890;2022-08-21T01:11:43;20.40;99.90
19359;DHT22;9815;52.334;20.890;2022-08-21T01:14:12;20.40;99.90
19359;DHT22;9815;52.334;20.890;2022-08-21T01:16:45;20.40;99.90
19359;DHT22;9815;52.334;20.890;2022-08-21T01:19:17;20.30;99.90
19359;DHT22;9815;52.334;20.890;2022-08-21T01:21:47;20.30;99.90
19359;DHT22;9815;52.334;20.890;2022-08-21T01:24:16;20.30;99.90
19359;DHT22;9815;52.334;20.890;2022-08-21T01:26:45;20.20;99.90
19359;DHT22;9815;52.334;20.890;2022-08-21T01:29:16;20.20;99.90
19359;DHT22;9815;52.334;20.890;2022-08-21T01:31:48;20.10;99.90
19359;DHT22;9815;52.334;20.890;2022-08-21T01:34:17;20.10;99.90
19359;DHT22;9815;52.334;20.890;2022-08-21T01:36:47;20.10;99.90
19359;DHT22;9815;52.334;20.890;2022-08-21T01:39:16;20.10;99.90
19359;DHT22;9815;52.334;20.890;2022-08-21T01:41:44;20.00;99.90
19359;DHT22;9815;52.334;20.890;2022-08-21T01:44:12;20.00;99.90
19359;DHT22;9815;52.334;20.890;2022-08-21T01:46:40;19.90;99.90
19359;DHT22;9815;52.334;20.890;2022-08-21T01:49:09;19.90;99.90
19359;DHT22;9815;52.334;20.890;2022-08-21T01:51:37;19.80;99.90
19359;DHT22;9815;52.334;20.890;2022-08-21T01:54:07;19.80;99.90
19359;DHT22;9815;52.334;20.890;2022-08-21T01:56:36;19.70;99.90
19359;DHT22;9815;52.334;20.890;2022-08-21T01:59:06;19.70;99.90
19359;DHT22;9815;52.334;20.890;2022-08-21T02:01:34;19.60;99.90
19359;DHT22;9815;52.334;20.890;2022-08-21T02:04:03;19.60;99.90
19359;DHT22;9815;52.334;20.890;2022-08-21T02:06:31;19.60;99.90
19359;DHT22;9815;52.334;20.890;2022-08-21T02:09:00;19.60;99.90
19359;DHT22;9815;52.334;20.890;2022-08-21T02:11:29;19.50;99.90
19359;DHT22;9815;52.334;20.890;2022-08-21T02:13:57;19.60;99.90
19359;DHT22;9815;52.334;20.890;2022-08-21T02:16:26;19.50;99.90
19359;DHT22;9815;52.334;20.890;2022-08-21T02:18:59;19.50;99.90
19359;DHT22;9815;52.334;20.890;2022-08-21T02:21:27;19.50;99.90
19359;DHT22;9815;52.334;20.890;2022-08-21T02:23:55;19.40;99.90
19359;DHT22;9815;52.334;20.890;2022-08-21T02:26:23;19.40;99.90
19359;DHT22;9815;52.334;20.890;2022-08-21T02:28:53;19.30;99.90
19359;DHT22;9815;52.334;20.890;2022-08-21T02:31:22;19.40;99.90
19359;DHT22;9815;52.334;20.890;2022-08-21T02:33:51;19.40;99.90
19359;DHT22;9815;52.334;20.890;2022-08-21T02:36:20;19.40;99.90
19359;DHT22;9815;52.334;20.890;2022-08-21T02:38:48;19.40;99.90
19359;DHT22;9815;52.334;20.890;2022-08-21T02:41:20;19.30;99.90
19359;DHT22;9815;52.334;20.890;2022-08-21T02:43:48;19.30;99.90
19359;DHT22;9815;52.334;20.890;2022-08-21T02:46:19;19.20;99.90
19359;DHT22;9815;52.334;20.890;2022-08-21T02:48:48;19.20;99.90
19359;DHT22;9815;52.334;20.890;2022-08-21T02:51:19;19.20;99.90
19359;DHT22;9815;52.334;20.890;2022-08-21T02:53:49;19.20;99.90
19359;DHT22;9815;52.334;20.890;2022-08-21T02:56:20;19.20;99.90
19359;DHT22;9815;52.334;20.890;2022-08-21T02:58:50;19.10;99.90
19359;DHT22;9815;52.334;20.890;2022-08-21T03:01:21;19.00;99.90
19359;DHT22;9815;52.334;20.890;2022-08-21T03:03:50;19.00;99.90
19359;DHT22;9815;52.334;20.890;2022-08-21T03:06:21;19.00;99.90
19359;DHT22;9815;52.334;20.890;2022-08-21T03:08:49;19.00;99.90
19359;DHT22;9815;52.334;20.890;2022-08-21T03:11:17;19.00;99.90
19359;DHT22;9815;52.334;20.890;2022-08-21T03:13:46;18.90;99.90
19359;DHT22;9815;52.334;20.890;2022-08-21T03:16:14;18.90;99.90
19359;DHT22;9815;52.334;20.890;2022-08-21T03:18:44;18.90;99.90
19359;DHT22;9815;52.334;20.890;2022-08-21T03:21:12;18.90;99.90
19359;DHT22;9815;52.334;20.890;2022-08-21T03:23:40;18.80;99.90
19359;DHT22;9815;52.334;20.890;2022-08-21T03:26:10;18.80;99.90
19359;DHT22;9815;52.334;20.890;2022-08-21T03:28:38;18.80;99.90
19359;DHT22;9815;52.334;20.890;2022-08-21T03:31:06;18.70;99.90
19359;DHT22;9815;52.334;20.890;2022-08-21T03:33:35;18.70;99.90
19359;DHT22;9815;52.334;20.890;2022-08-21T03:36:06;18.70;99.90
19359;DHT22;9815;52.334;20.890;2022-08-21T03:38:36;18.70;99.90
19359;DHT22;9815;52.334;20.890;2022-08-21T03:41:05;18.70;99.90
19359;DHT22;9815;52.334;20.890;2022-08-21T03:43:34;18.70;99.90
19359;DHT22;9815;52.334;20.890;2022-08-21T03:46:04;18.70;99.90
19359;DHT22;9815;52.334;20.890;2022-08-21T03:48:33;18.60;99.90
19359;DHT22;9815;52.334;20.890;2022-08-21T03:51:02;18.60;99.90
19359;DHT22;9815;52.334;20.890;2022-08-21T03:53:33;18.60;99.90
19359;DHT22;9815;52.334;20.890;2022-08-21T03:56:01;18.60;99.90
19359;DHT22;9815;52.334;20.890;2022-08-21T03:58:30;18.60;99.90
19359;DHT22;9815;52.334;20.890;2022-08-21T04:00:59;18.60;99.90
19359;DHT22;9815;52.334;20.890;2022-08-21T04:03:28;18.60;99.90
19359;DHT22;9815;52.334;20.890;2022-08-21T04:05:57;18.70;99.90
19359;DHT22;9815;52.334;20.890;2022-08-21T04:08:26;18.70;99.90
19359;DHT22;9815;52.334;20.890;2022-08-21T04:10:56;18.70;99.90
19359;DHT22;9815;52.334;20.890;2022-08-21T04:13:26;18.80;99.90
19359;DHT22;9815;52.334;20.890;2022-08-21T04:15:54;18.80;99.90
19359;DHT22;9815;52.334;20.890;2022-08-21T04:18:23;18.80;99.90
19359;DHT22;9815;52.334;20.890;2022-08-21T04:20:52;18.80;99.90
19359;DHT22;9815;52.334;20.890;2022-08-21T04:23:22;18.90;99.90
19359;DHT22;9815;52.334;20.890;2022-08-21T04:25:56;18.90;99.90
19359;DHT22;9815;52.334;20.890;2022-08-21T04:28:26;19.00;99.90
19359;DHT22;9815;52.334;20.890;2022-08-21T04:30:57;19.10;99.90
19359;DHT22;9815;52.334;20.890;2022-08-21T04:33:25;19.20;99.90
19359;DHT22;9815;52.334;20.890;2022-08-21T04:35:53;19.30;99.90
19359;DHT22;9815;52.334;20.890;2022-08-21T04:38:22;19.30;99.90
19359;DHT22;9815;52.334;20.890;2022-08-21T04:40:51;19.30;99.90
19359;DHT22;9815;52.334;20.890;2022-08-21T04:43:21;19.40;99.90
19359;DHT22;9815;52.334;20.890;2022-08-21T04:45:51;19.50;99.90
19359;DHT22;9815;52.334;20.890;2022-08-21T04:48:21;19.60;99.90
19359;DHT22;9815;52.334;20.890;2022-08-21T04:50:54;19.70;99.90
19359;DHT22;9815;52.334;20.890;2022-08-21T04:53:27;19.70;99.90
19359;DHT22;9815;52.334;20.890;2022-08-21T04:56:02;19.70;99.90
19359;DHT22;9815;52.334;20.890;2022-08-21T04:58:34;19.70;99.90
19359;DHT22;9815;52.334;20.890;2022-08-21T05:01:04;19.80;99.90
19359;DHT22;9815;52.334;20.890;2022-08-21T05:03:36;19.80;99.90
19359;DHT22;9815;52.334;20.890;2022-08-21T05:06:07;19.90;99.90
19359;DHT22;9815;52.334;20.890;2022-08-21T05:08:38;20.00;99.90
19359;DHT22;9815;52.334;20.890;2022-08-21T05:11:07;20.10;99.90
19359;DHT22;9815;52.334;20.890;2022-08-21T05:13:36;20.10;99.90
19359;DHT22;9815;52.334;20.890;2022-08-21T05:16:05;20.20;99.90
19359;DHT22;9815;52.334;20.890;2022-08-21T05:18:33;20.20;99.90
19359;DHT22;9815;52.334;20.890;2022-08-21T05:21:02;20.20;99.90
19359;DHT22;9815;52.334;20.890;2022-08-21T05:23:31;20.30;99.90
19359;DHT22;9815;52.334;20.890;2022-08-21T05:26:00;20.40;99.90
19359;DHT22;9815;52.334;20.890;2022-08-21T05:28:28;20.50;99.90
19359;DHT22;9815;52.334;20.890;2022-08-21T05:30:58;20.50;99.90
19359;DHT22;9815;52.334;20.890;2022-08-21T05:33:26;20.60;99.90
19359;DHT22;9815;52.334;20.890;2022-08-21T05:35:55;20.70;99.90
19359;DHT22;9815;52.334;20.890;2022-08-21T05:38:24;20.70;99.90
19359;DHT22;9815;52.334;20.890;2022-08-21T05:40:54;20.70;99.90
19359;DHT22;9815;52.334;20.890;2022-08-21T05:43:22;20.90;99.90
19359;DHT22;9815;52.334;20.890;2022-08-21T05:45:51;21.00;99.90
19359;DHT22;9815;52.334;20.890;2022-08-21T05:48:22;21.00;99.90
19359;DHT22;9815;52.334;20.890;2022-08-21T05:50:51;21.00;99.90
19359;DHT22;9815;52.334;20.890;2022-08-21T05:53:22;21.00;99.90
19359;DHT22;9815;52.334;20.890;2022-08-21T05:55:51;21.00;99.90
19359;DHT22;9815;52.334;20.890;2022-08-21T05:58:21;21.10;99.90
19359;DHT22;9815;52.334;20.890;2022-08-21T06:00:50;21.10;99.90
19359;DHT22;9815;52.334;20.890;2022-08-21T06:03:22;21.10;99.90
19359;DHT22;9815;52.334;20.890;2022-08-21T06:05:51;21.20;99.90
19359;DHT22;9815;52.334;20.890;2022-08-21T06:08:21;21.20;99.90
19359;DHT22;9815;52.334;20.890;2022-08-21T06:10:50;21.30;99.90
19359;DHT22;9815;52.334;20.890;2022-08-21T06:13:20;21.40;99.90
19359;DHT22;9815;52.334;20.890;2022-08-21T06:15:49;21.50;99.90
19359;DHT22;9815;52.334;20.890;2022-08-21T06:18:17;21.50;99.90
19359;DHT22;9815;52.334;20.890;2022-08-21T06:20:47;21.50;99.90
19359;DHT22;9815;52.334;20.890;2022-08-21T06:23:15;21.50;99.90
19359;DHT22;9815;52.334;20.890;2022-08-21T06:25:44;21.50;99.90
19359;DHT22;9815;52.334;20.890;2022-08-21T06:28:13;21.60;99.90
19359;DHT22;9815;52.334;20.890;2022-08-21T06:30:41;21.60;99.90
19359;DHT22;9815;52.334;20.890;2022-08-21T06:33:10;21.60;99.90
19359;DHT22;9815;52.334;20.890;2022-08-21T06:35:39;21.60;99.90
19359;DHT22;9815;52.334;20.890;2022-08-21T06:38:09;21.70;99.90
19359;DHT22;9815;52.334;20.890;2022-08-21T06:40:38;21.70;99.90
19359;DHT22;9815;52.334;20.890;2022-08-21T06:43:15;21.80;99.90
19359;DHT22;9815;52.334;20.890;2022-08-21T06:45:44;21.90;99.90
19359;DHT22;9815;52.334;20.890;2022-08-21T06:48:12;21.90;99.90
19359;DHT22;9815;52.334;20.890;2022-08-21T06:50:46;22.00;99.90
19359;DHT22;9815;52.334;20.890;2022-08-21T06:53:20;22.10;99.90
19359;DHT22;9815;52.334;20.890;2022-08-21T06:55:48;22.10;99.90
19359;DHT22;9815;52.334;20.890;2022-08-21T06:58:17;22.30;99.90
19359;DHT22;9815;52.334;20.890;2022-08-21T07:00:49;22.30;99.90
19359;DHT22;9815;52.334;20.890;2022-08-21T07:03:22;22.30;99.90
19359;DHT22;9815;52.334;20.890;2022-08-21T07:05:51;22.40;99.90
19359;DHT22;9815;52.334;20.890;2022-08-21T07:08:21;22.50;98.60
19359;DHT22;9815;52.334;20.890;2022-08-21T07:10:49;22.60;99.90
19359;DHT22;9815;52.334;20.890;2022-08-21T07:13:18;22.50;99.20
19359;DHT22;9815;52.334;20.890;2022-08-21T07:15:46;22.70;99.90
19359;DHT22;9815;52.334;20.890;2022-08-21T07:18:15;22.70;99.90
19359;DHT22;9815;52.334;20.890;2022-08-21T07:20:43;22.70;99.90
19359;DHT22;9815;52.334;20.890;2022-08-21T07:23:19;22.70;99.90
19359;DHT22;9815;52.334;20.890;2022-08-21T07:25:51;22.90;99.10
19359;DHT22;9815;52.334;20.890;2022-08-21T07:28:20;22.90;97.00
19359;DHT22;9815;52.334;20.890;2022-08-21T07:30:50;22.80;97.90
19359;DHT22;9815;52.334;20.890;2022-08-21T07:33:19;22.80;97.70
19359;DHT22;9815;52.334;20.890;2022-08-21T07:35:47;23.00;98.60
19359;DHT22;9815;52.334;20.890;2022-08-21T07:38:16;23.20;97.50
19359;DHT22;9815;52.334;20.890;2022-08-21T07:40:45;23.40;98.80
19359;DHT22;9815;52.334;20.890;2022-08-21T07:43:15;23.40;95.50
19359;DHT22;9815;52.334;20.890;2022-08-21T07:45:43;23.50;96.30
19359;DHT22;9815;52.334;20.890;2022-08-21T07:48:12;23.70;95.20
19359;DHT22;9815;52.334;20.890;2022-08-21T07:50:41;24.10;93.80
19359;DHT22;9815;52.334;20.890;2022-08-21T07:53:09;24.40;93.00
19359;DHT22;9815;52.334;20.890;2022-08-21T07:55:38;24.50;93.90
19359;DHT22;9815;52.334;20.890;2022-08-21T07:58:06;24.30;91.70
19359;DHT22;9815;52.334;20.890;2022-08-21T08:00:36;24.20;91.00
19359;DHT22;9815;52.334;20.890;2022-08-21T08:03:04;24.20;90.80
19359;DHT22;9815;52.334;20.890;2022-08-21T08:05:33;24.30;90.80
19359;DHT22;9815;52.334;20.890;2022-08-21T08:08:03;24.30;91.90
19359;DHT22;9815;52.334;20.890;2022-08-21T08:10:32;24.50;93.70
19359;DHT22;9815;52.334;20.890;2022-08-21T08:13:00;24.60;92.30
19359;DHT22;9815;52.334;20.890;2022-08-21T08:15:29;24.70;90.60
19359;DHT22;9815;52.334;20.890;2022-08-21T08:18:04;24.70;88.40
19359;DHT22;9815;52.334;20.890;2022-08-21T08:20:33;24.90;88.60
19359;DHT22;9815;52.334;20.890;2022-08-21T08:23:01;25.00;82.60
19359;DHT22;9815;52.334;20.890;2022-08-21T08:25:30;25.20;88.60
19359;DHT22;9815;52.334;20.890;2022-08-21T08:28:03;25.40;85.90
19359;DHT22;9815;52.334;20.890;2022-08-21T08:30:43;25.40;81.90
19359;DHT22;9815;52.334;20.890;2022-08-21T08:33:13;25.40;81.40
19359;DHT22;9815;52.334;20.890;2022-08-21T08:35:43;25.50;85.80
19359;DHT22;9815;52.334;20.890;2022-08-21T08:38:12;25.80;81.20
19359;DHT22;9815;52.334;20.890;2022-08-21T08:40:51;25.70;80.60
19359;DHT22;9815;52.334;20.890;2022-08-21T08:43:20;25.70;82.10
19359;DHT22;9815;52.334;20.890;2022-08-21T08:45:51;25.80;78.70
19359;DHT22;9815;52.334;20.890;2022-08-21T08:48:36;25.90;77.80
19359;DHT22;9815;52.334;20.890;2022-08-21T08:51:11;26.00;83.30
19359;DHT22;9815;52.334;20.890;2022-08-21T08:53:52;26.20;78.80
19359;DHT22;9815;52.334;20.890;2022-08-21T08:56:28;26.10;78.00
19359;DHT22;9815;52.334;20.890;2022-08-21T08:59:00;26.40;79.70
19359;DHT22;9815;52.334;20.890;2022-08-21T09:01:29;26.30;78.00
19359;DHT22;9815;52.334;20.890;2022-08-21T09:04:06;26.50;75.30
19359;DHT22;9815;52.334;20.890;2022-08-21T09:06:41;26.80;74.70
19359;DHT22;9815;52.334;20.890;2022-08-21T09:09:22;26.70;74.60
19359;DHT22;9815;52.334;20.890;2022-08-21T09:11:59;27.00;71.50
19359;DHT22;9815;52.334;20.890;2022-08-21T09:14:47;27.00;71.20
19359;DHT22;9815;52.334;20.890;2022-08-21T09:17:27;26.80;71.50
19359;DHT22;9815;52.334;20.890;2022-08-21T09:20:11;26.60;71.90
19359;DHT22;9815;52.334;20.890;2022-08-21T09:22:49;26.70;70.80
19359;DHT22;9815;52.334;20.890;2022-08-21T09:25:20;27.00;70.90
19359;DHT22;9815;52.334;20.890;2022-08-21T09:27:51;27.70;68.50
19359;DHT22;9815;52.334;20.890;2022-08-21T09:30:25;27.80;68.90
19359;DHT22;9815;52.334;20.890;2022-08-21T09:32:54;28.10;66.80
19359;DHT22;9815;52.334;20.890;2022-08-21T09:35:25;27.30;68.50
19359;DHT22;9815;52.334;20.890;2022-08-21T09:37:55;27.20;67.70
19359;DHT22;9815;52.334;20.890;2022-08-21T09:40:32;27.20;68.20
19359;DHT22;9815;52.334;20.890;2022-08-21T09:43:04;27.10;65.60
19359;DHT22;9815;52.334;20.890;2022-08-21T09:45:34;27.70;64.40
19359;DHT22;9815;52.334;20.890;2022-08-21T09:48:11;27.50;61.00
19359;DHT22;9815;52.334;20.890;2022-08-21T09:50:42;27.40;63.10
19359;DHT22;9815;52.334;20.890;2022-08-21T09:53:19;27.30;65.60
19359;DHT22;9815;52.334;20.890;2022-08-21T09:55:51;27.50;63.10
19359;DHT22;9815;52.334;20.890;2022-08-21T09:58:39;27.30;63.20
19359;DHT22;9815;52.334;20.890;2022-08-21T10:01:13;27.40;62.90
19359;DHT22;9815;52.334;20.890;2022-08-21T10:03:42;27.20;67.10
19359;DHT22;9815;52.334;20.890;2022-08-21T10:06:22;27.40;64.10
19359;DHT22;9815;52.334;20.890;2022-08-21T10:08:51;27.70;62.80
19359;DHT22;9815;52.334;20.890;2022-08-21T10:11:24;28.00;64.80
19359;DHT22;9815;52.334;20.890;2022-08-21T10:14:03;27.60;62.20
19359;DHT22;9815;52.334;20.890;2022-08-21T10:16:40;27.10;61.60
19359;DHT22;9815;52.334;20.890;2022-08-21T10:19:17;27.10;64.40
19359;DHT22;9815;52.334;20.890;2022-08-21T10:21:59;26.70;65.50
19359;DHT22;9815;52.334;20.890;2022-08-21T10:24:31;26.70;66.70
19359;DHT22;9815;52.334;20.890;2022-08-21T10:27:09;26.60;66.30
19359;DHT22;9815;52.334;20.890;2022-08-21T10:29:46;26.60;70.00
19359;DHT22;9815;52.334;20.890;2022-08-21T10:32:36;27.00;66.10
19359;DHT22;9815;52.334;20.890;2022-08-21T10:35:10;27.50;63.10
19359;DHT22;9815;52.334;20.890;2022-08-21T10:37:56;27.90;60.70
19359;DHT22;9815;52.334;20.890;2022-08-21T10:40:34;28.70;55.60
19359;DHT22;9815;52.334;20.890;2022-08-21T10:43:16;29.00;56.20
19359;DHT22;9815;52.334;20.890;2022-08-21T10:45:55;29.30;53.30
19359;DHT22;9815;52.334;20.890;2022-08-21T10:48:29;29.60;50.50
19359;DHT22;9815;52.334;20.890;2022-08-21T10:51:06;30.00;52.10
19359;DHT22;9815;52.334;20.890;2022-08-21T10:53:48;30.20;51.30
19359;DHT22;9815;52.334;20.890;2022-08-21T10:56:21;30.70;49.30
19359;DHT22;9815;52.334;20.890;2022-08-21T11:01:46;30.70;48.30
19359;DHT22;9815;52.334;20.890;2022-08-21T11:04:19;30.70;47.40
19359;DHT22;9815;52.334;20.890;2022-08-21T11:06:53;30.70;46.40
19359;DHT22;9815;52.334;20.890;2022-08-21T11:09:26;30.50;47.60
19359;DHT22;9815;52.334;20.890;2022-08-21T11:11:58;30.40;48.00
19359;DHT22;9815;52.334;20.890;2022-08-21T11:14:42;30.20;48.10
19359;DHT22;9815;52.334;20.890;2022-08-21T11:17:20;30.30;48.40
19359;DHT22;9815;52.334;20.890;2022-08-21T11:19:56;30.30;48.80
19359;DHT22;9815;52.334;20.890;2022-08-21T11:22:35;30.00;48.30
19359;DHT22;9815;52.334;20.890;2022-08-21T11:25:12;29.70;49.40
19359;DHT22;9815;52.334;20.890;2022-08-21T11:27:46;29.30;50.20
19359;DHT22;9815;52.334;20.890;2022-08-21T11:30:17;29.00;50.70
19359;DHT22;9815;52.334;20.890;2022-08-21T11:33:10;28.80;49.00
19359;DHT22;9815;52.334;20.890;2022-08-21T11:35:46;28.60;49.00
19359;DHT22;9815;52.334;20.890;2022-08-21T11:38:27;28.20;49.80
19359;DHT22;9815;52.334;20.890;2022-08-21T11:41:12;27.90;53.40
19359;DHT22;9815;52.334;20.890;2022-08-21T11:43:43;27.70;53.90
19359;DHT22;9815;52.334;20.890;2022-08-21T11:46:25;28.20;53.40
19359;DHT22;9815;52.334;20.890;2022-08-21T11:49:41;28.90;52.00
19359;DHT22;9815;52.334;20.890;2022-08-21T11:52:17;29.60;50.60
19359;DHT22;9815;52.334;20.890;2022-08-21T11:54:54;29.80;50.50
19359;DHT22;9815;52.334;20.890;2022-08-21T11:57:31;30.10;48.70
19359;DHT22;9815;52.334;20.890;2022-08-21T12:00:04;30.50;49.30
19359;DHT22;9815;52.334;20.890;2022-08-21T12:02:42;30.70;47.50
19359;DHT22;9815;52.334;20.890;2022-08-21T12:05:20;30.70;47.50
19359;DHT22;9815;52.334;20.890;2022-08-21T12:08:05;30.20;47.30
19359;DHT22;9815;52.334;20.890;2022-08-21T12:10:37;29.80;48.90
19359;DHT22;9815;52.334;20.890;2022-08-21T12:13:10;30.30;49.20
19359;DHT22;9815;52.334;20.890;2022-08-21T12:15:40;30.40;48.50
19359;DHT22;9815;52.334;20.890;2022-08-21T12:18:22;30.70;49.10
19359;DHT22;9815;52.334;20.890;2022-08-21T12:21:04;30.80;47.50
19359;DHT22;9815;52.334;20.890;2022-08-21T12:23:45;30.30;47.30
19359;DHT22;9815;52.334;20.890;2022-08-21T12:26:29;30.30;49.40
19359;DHT22;9815;52.334;20.890;2022-08-21T12:29:11;30.50;48.30
19359;DHT22;9815;52.334;20.890;2022-08-21T12:32:04;31.00;46.70
19359;DHT22;9815;52.334;20.890;2022-08-21T12:34:49;30.10;47.90
19359;DHT22;9815;52.334;20.890;2022-08-21T12:37:22;30.20;49.10
19359;DHT22;9815;52.334;20.890;2022-08-21T12:39:54;30.50;48.50
19359;DHT22;9815;52.334;20.890;2022-08-21T12:42:31;30.70;47.80
19359;DHT22;9815;52.334;20.890;2022-08-21T12:45:04;31.20;45.20
19359;DHT22;9815;52.334;20.890;2022-08-21T12:47:36;31.30;45.90
19359;DHT22;9815;52.334;20.890;2022-08-21T12:50:15;31.50;45.30
19359;DHT22;9815;52.334;20.890;2022-08-21T12:52:48;31.40;44.90
19359;DHT22;9815;52.334;20.890;2022-08-21T12:55:26;31.30;46.40
19359;DHT22;9815;52.334;20.890;2022-08-21T12:57:55;31.20;44.40
19359;DHT22;9815;52.334;20.890;2022-08-21T13:00:28;31.30;45.40
19359;DHT22;9815;52.334;20.890;2022-08-21T13:02:57;31.20;43.80
19359;DHT22;9815;52.334;20.890;2022-08-21T13:05:31;30.90;45.20
19359;DHT22;9815;52.334;20.890;2022-08-21T13:08:04;31.20;45.30
19359;DHT22;9815;52.334;20.890;2022-08-21T13:10:33;31.00;44.90
19359;DHT22;9815;52.334;20.890;2022-08-21T13:13:04;30.50;46.00
19359;DHT22;9815;52.334;20.890;2022-08-21T13:15:41;30.60;46.30
19359;DHT22;9815;52.334;20.890;2022-08-21T13:18:21;30.40;46.20
19359;DHT22;9815;52.334;20.890;2022-08-21T13:20:51;30.40;47.00
19359;DHT22;9815;52.334;20.890;2022-08-21T13:23:24;30.30;47.60
19359;DHT22;9815;52.334;20.890;2022-08-21T13:25:53;30.50;47.40
19359;DHT22;9815;52.334;20.890;2022-08-21T13:28:22;30.80;46.80
19359;DHT22;9815;52.334;20.890;2022-08-21T13:30:53;30.60;48.30
19359;DHT22;9815;52.334;20.890;2022-08-21T13:33:24;30.40;48.50
19359;DHT22;9815;52.334;20.890;2022-08-21T13:36:07;30.00;48.70
19359;DHT22;9815;52.334;20.890;2022-08-21T13:38:39;29.50;50.00
19359;DHT22;9815;52.334;20.890;2022-08-21T13:41:20;29.00;51.90
19359;DHT22;9815;52.334;20.890;2022-08-21T13:43:57;28.70;53.30
19359;DHT22;9815;52.334;20.890;2022-08-21T13:46:30;28.50;54.20
19359;DHT22;9815;52.334;20.890;2022-08-21T13:48:59;28.40;55.50
19359;DHT22;9815;52.334;20.890;2022-08-21T13:51:29;28.30;56.70
19359;DHT22;9815;52.334;20.890;2022-08-21T13:53:57;28.70;54.10
19359;DHT22;9815;52.334;20.890;2022-08-21T13:56:29;28.80;53.00
19359;DHT22;9815;52.334;20.890;2022-08-21T13:59:00;29.20;51.80
19359;DHT22;9815;52.334;20.890;2022-08-21T14:01:33;29.60;50.30
19359;DHT22;9815;52.334;20.890;2022-08-21T14:04:07;29.60;50.30
19359;DHT22;9815;52.334;20.890;2022-08-21T14:06:40;29.90;51.20
19359;DHT22;9815;52.334;20.890;2022-08-21T14:09:10;30.00;50.00
19359;DHT22;9815;52.334;20.890;2022-08-21T14:11:39;30.10;49.60
19359;DHT22;9815;52.334;20.890;2022-08-21T14:14:16;30.20;49.30
19359;DHT22;9815;52.334;20.890;2022-08-21T14:16:55;30.00;48.80
19359;DHT22;9815;52.334;20.890;2022-08-21T14:19:25;29.90;48.80
19359;DHT22;9815;52.334;20.890;2022-08-21T14:21:55;29.70;48.30
19359;DHT22;9815;52.334;20.890;2022-08-21T14:24:28;29.70;48.90
19359;DHT22;9815;52.334;20.890;2022-08-21T14:27:06;29.90;48.40
19359;DHT22;9815;52.334;20.890;2022-08-21T14:29:37;30.20;48.90
19359;DHT22;9815;52.334;20.890;2022-08-21T14:32:14;30.10;47.90
19359;DHT22;9815;52.334;20.890;2022-08-21T14:34:51;30.10;47.00
19359;DHT22;9815;52.334;20.890;2022-08-21T14:37:20;30.00;47.40
19359;DHT22;9815;52.334;20.890;2022-08-21T14:39:49;29.80;47.90
19359;DHT22;9815;52.334;20.890;2022-08-21T14:42:17;29.70;47.90
19359;DHT22;9815;52.334;20.890;2022-08-21T14:44:46;29.90;48.50
19359;DHT22;9815;52.334;20.890;2022-08-21T14:47:15;29.90;49.10
19359;DHT22;9815;52.334;20.890;2022-08-21T14:49:44;29.60;47.20
19359;DHT22;9815;52.334;20.890;2022-08-21T14:52:12;29.50;48.10
19359;DHT22;9815;52.334;20.890;2022-08-21T14:54:40;29.50;48.00
19359;DHT22;9815;52.334;20.890;2022-08-21T14:57:10;29.60;48.20
19359;DHT22;9815;52.334;20.890;2022-08-21T14:59:39;29.40;48.10
19359;DHT22;9815;52.334;20.890;2022-08-21T15:02:08;29.70;47.70
19359;DHT22;9815;52.334;20.890;2022-08-21T15:04:38;29.40;48.30
19359;DHT22;9815;52.334;20.890;2022-08-21T15:07:06;29.00;49.40
19359;DHT22;9815;52.334;20.890;2022-08-21T15:09:34;28.80;50.00
19359;DHT22;9815;52.334;20.890;2022-08-21T15:12:03;28.60;51.00
19359;DHT22;9815;52.334;20.890;2022-08-21T15:14:34;28.60;51.00
19359;DHT22;9815;52.334;20.890;2022-08-21T15:17:04;28.50;51.20
19359;DHT22;9815;52.334;20.890;2022-08-21T15:19:33;28.40;52.00
19359;DHT22;9815;52.334;20.890;2022-08-21T15:22:04;28.40;52.60
19359;DHT22;9815;52.334;20.890;2022-08-21T15:24:41;28.40;51.70
19359;DHT22;9815;52.334;20.890;2022-08-21T15:27:10;28.30;51.70
19359;DHT22;9815;52.334;20.890;2022-08-21T15:29:42;28.20;52.10
19359;DHT22;9815;52.334;20.890;2022-08-21T15:32:20;28.10;51.50
19359;DHT22;9815;52.334;20.890;2022-08-21T15:34:50;28.30;52.80
19359;DHT22;9815;52.334;20.890;2022-08-21T15:37:20;28.10;53.50
19359;DHT22;9815;52.334;20.890;2022-08-21T15:39:49;28.10;52.50
19359;DHT22;9815;52.334;20.890;2022-08-21T15:42:20;27.90;54.20
19359;DHT22;9815;52.334;20.890;2022-08-21T15:44:49;27.70;55.30
19359;DHT22;9815;52.334;20.890;2022-08-21T15:47:19;27.70;56.20
19359;DHT22;9815;52.334;20.890;2022-08-21T15:49:49;27.50;58.10
19359;DHT22;9815;52.334;20.890;2022-08-21T15:52:20;27.40;57.30
19359;DHT22;9815;52.334;20.890;2022-08-21T15:54:49;27.30;56.70
19359;DHT22;9815;52.334;20.890;2022-08-21T15:57:20;27.10;57.60
19359;DHT22;9815;52.334;20.890;2022-08-21T15:59:51;27.10;60.10
19359;DHT22;9815;52.334;20.890;2022-08-21T16:02:23;26.90;60.10